sensor_id;sensor_type;location;lat;lon;timestamp;P1;durP1;ratioP1;P2;durP2;ratioP2
31990;SDS011;18508;49.386;8.370;2024-02-14T00:00:33;11.65;;;6.72;;
31990;SDS011;18508;49.386;8.370;2024-02-14T00:03:04;14.75;;;6.82;;
31990;SDS011;18508;49.386;8.370;2024-02-14T00:05:33;13.18;;;7.07;;
31990;SDS011;18508;49.386;8.370;2024-02-14T00:08:04;11.80;;;7.53;;
31990;SDS011;18508;49.386;8.370;2024-02-14T00:10:36;10.82;;;6.65;;
31990;SDS011;18508;49.386;8.370;2024-02-14T00:13:04;11.93;;;6.20;;
31990;SDS011;18508;49.386;8.370;2024-02-14T00:15:34;14.00;;;6.97;;
31990;SDS011;18508;49.386;8.370;2024-02-14T00:18:05;11.35;;;6.70;;
31990;SDS011;18508;49.386;8.370;2024-02-14T00:20:34;11.20;;;7.18;;
31990;SDS011;18508;49.386;8.370;2024-02-14T00:23:05;10.80;;;7.38;;
31990;SDS011;18508;49.386;8.370;2024-02-14T00:25:33;13.25;;;7.47;;
31990;SDS011;18508;49.386;8.370;2024-02-14T00:28:02;15.15;;;7.95;;
31990;SDS011;18508;49.386;8.370;2024-02-14T00:30:31;13.25;;;7.65;;
31990;SDS011;18508;49.386;8.370;2024-02-14T00:33:01;14.57;;;7.60;;
31990;SDS011;18508;49.386;8.370;2024-02-14T00:35:29;13.20;;;7.53;;
31990;SDS011;18508;49.386;8.370;2024-02-14T00:37:58;13.85;;;7.63;;
31990;SDS011;18508;49.386;8.370;2024-02-14T00:40:28;13.38;;;8.00;;
31990;SDS011;18508;49.386;8.370;2024-02-14T00:42:57;11.77;;;7.80;;
31990;SDS011;18508;49.386;8.370;2024-02-14T00:45:27;15.07;;;7.97;;
31990;SDS011;18508;49.386;8.370;2024-02-14T00:47:56;13.57;;;7.03;;
31990;SDS011;18508;49.386;8.370;2024-02-14T00:50:24;12.40;;;7.78;;
31990;SDS011;18508;49.386;8.370;2024-02-14T00:52:53;13.00;;;7.88;;
31990;SDS011;18508;49.386;8.370;2024-02-14T00:55:23;14.57;;;8.43;;
31990;SDS011;18508;49.386;8.370;2024-02-14T00:57:54;16.23;;;7.88;;
31990;SDS011;18508;49.386;8.370;2024-02-14T01:00:22;14.93;;;7.80;;
31990;SDS011;18508;49.386;8.370;2024-02-14T01:02:52;16.33;;;7.57;;
31990;SDS011;18508;49.386;8.370;2024-02-14T01:05:20;14.57;;;8.35;;
31990;SDS011;18508;49.386;8.370;2024-02-14T01:07:49;17.63;;;9.02;;
31990;SDS011;18508;49.386;8.370;2024-02-14T01:10:21;15.27;;;8.63;;
31990;SDS011;18508;49.386;8.370;2024-02-14T01:12:50;13.73;;;8.77;;
31990;SDS011;18508;49.386;8.370;2024-02-14T01:15:20;22.63;;;8.95;;
31990;SDS011;18508;49.386;8.370;2024-02-14T01:17:49;14.23;;;8.60;;
31990;SDS011;18508;49.386;8.370;2024-02-14T01:20:18;14.95;;;7.80;;
31990;SDS011;18508;49.386;8.370;2024-02-14T01:22:46;16.58;;;8.30;;
31990;SDS011;18508;49.386;8.370;2024-02-14T01:25:15;13.93;;;8.95;;
31990;SDS011;18508;49.386;8.370;2024-02-14T01:27:47;12.70;;;7.50;;
31990;SDS011;18508;49.386;8.370;2024-02-14T01:30:20;17.30;;;8.00;;
31990;SDS011;18508;49.386;8.370;2024-02-14T01:32:51;13.27;;;9.23;;
31990;SDS011;18508;49.386;8.370;2024-02-14T01:35:20;18.23;;;8.02;;
31990;SDS011;18508;49.386;8.370;2024-02-14T01:37:49;15.40;;;8.77;;
31990;SDS011;18508;49.386;8.370;2024-02-14T01:40:19;14.80;;;8.45;;
31990;SDS011;18508;49.386;8.370;2024-02-14T01:42:47;15.57;;;8.55;;
31990;SDS011;18508;49.386;8.370;2024-02-14T01:45:16;13.13;;;8.13;;
31990;SDS011;18508;49.386;8.370;2024-02-14T01:47:46;13.45;;;8.35;;
31990;SDS011;18508;49.386;8.370;2024-02-14T01:50:16;16.48;;;8.82;;
31990;SDS011;18508;49.386;8.370;2024-02-14T01:52:55;16.42;;;8.60;;
31990;SDS011;18508;49.386;8.370;2024-02-14T01:55:27;16.85;;;8.60;;
31990;SDS011;18508;49.386;8.370;2024-02-14T01:57:56;15.55;;;8.48;;
31990;SDS011;18508;49.386;8.370;2024-02-14T02:00:26;17.48;;;8.57;;
31990;SDS011;18508;49.386;8.370;2024-02-14T02:02:59;21.20;;;8.85;;
31990;SDS011;18508;49.386;8.370;2024-02-14T02:05:30;14.75;;;8.60;;
31990;SDS011;18508;49.386;8.370;2024-02-14T02:08:00;15.80;;;8.38;;
31990;SDS011;18508;49.386;8.370;2024-02-14T02:10:32;16.73;;;8.20;;
31990;SDS011;18508;49.386;8.370;2024-02-14T02:13:02;14.18;;;8.25;;
31990;SDS011;18508;49.386;8.370;2024-02-14T02:15:30;37.92;;;10.73;;
31990;SDS011;18508;49.386;8.370;2024-02-14T02:18:00;14.93;;;9.13;;
31990;SDS011;18508;49.386;8.370;2024-02-14T02:20:32;13.50;;;8.45;;
31990;SDS011;18508;49.386;8.370;2024-02-14T02:23:02;14.98;;;9.13;;
31990;SDS011;18508;49.386;8.370;2024-02-14T02:25:33;20.60;;;8.98;;
31990;SDS011;18508;49.386;8.370;2024-02-14T02:28:02;13.98;;;8.45;;
31990;SDS011;18508;49.386;8.370;2024-02-14T02:30:31;18.17;;;9.35;;
31990;SDS011;18508;49.386;8.370;2024-02-14T02:33:02;14.27;;;9.65;;
31990;SDS011;18508;49.386;8.370;2024-02-14T02:35:30;14.43;;;8.70;;
31990;SDS011;18508;49.386;8.370;2024-02-14T02:38:04;18.27;;;9.18;;
31990;SDS011;18508;49.386;8.370;2024-02-14T02:40:33;14.60;;;8.05;;
31990;SDS011;18508;49.386;8.370;2024-02-14T02:43:01;14.10;;;8.48;;
31990;SDS011;18508;49.386;8.370;2024-02-14T02:45:30;16.83;;;9.10;;
31990;SDS011;18508;49.386;8.370;2024-02-14T02:47:58;14.32;;;8.73;;
31990;SDS011;18508;49.386;8.370;2024-02-14T02:50:29;17.27;;;8.50;;
31990;SDS011;18508;49.386;8.370;2024-02-14T02:52:58;13.88;;;7.60;;
31990;SDS011;18508;49.386;8.370;2024-02-14T02:55:28;13.75;;;8.57;;
31990;SDS011;18508;49.386;8.370;2024-02-14T02:57:59;12.00;;;7.60;;
31990;SDS011;18508;49.386;8.370;2024-02-14T03:00:27;16.13;;;8.65;;
31990;SDS011;18508;49.386;8.370;2024-02-14T03:02:55;15.68;;;8.52;;
31990;SDS011;18508;49.386;8.370;2024-02-14T03:05:25;14.98;;;7.25;;
31990;SDS011;18508;49.386;8.370;2024-02-14T03:07:54;11.48;;;6.82;;
31990;SDS011;18508;49.386;8.370;2024-02-14T03:10:25;13.43;;;7.32;;
31990;SDS011;18508;49.386;8.370;2024-02-14T03:12:57;12.30;;;7.28;;
31990;SDS011;18508;49.386;8.370;2024-02-14T03:15:26;12.63;;;6.82;;
31990;SDS011;18508;49.386;8.370;2024-02-14T03:17:56;12.88;;;7.70;;
31990;SDS011;18508;49.386;8.370;2024-02-14T03:20:25;16.60;;;8.10;;
31990;SDS011;18508;49.386;8.370;2024-02-14T03:22:56;11.85;;;7.18;;
31990;SDS011;18508;49.386;8.370;2024-02-14T03:25:25;13.10;;;6.93;;
31990;SDS011;18508;49.386;8.370;2024-02-14T03:27:54;13.38;;;7.22;;
31990;SDS011;18508;49.386;8.370;2024-02-14T03:30:26;12.25;;;6.60;;
31990;SDS011;18508;49.386;8.370;2024-02-14T03:32:56;13.15;;;7.85;;
31990;SDS011;18508;49.386;8.370;2024-02-14T03:35:24;15.38;;;8.05;;
31990;SDS011;18508;49.386;8.370;2024-02-14T03:37:53;15.80;;;8.20;;
31990;SDS011;18508;49.386;8.370;2024-02-14T03:40:23;19.75;;;10.85;;
31990;SDS011;18508;49.386;8.370;2024-02-14T03:42:52;16.67;;;8.00;;
31990;SDS011;18508;49.386;8.370;2024-02-14T03:45:20;13.93;;;6.75;;
31990;SDS011;18508;49.386;8.370;2024-02-14T03:47:50;12.70;;;6.97;;
31990;SDS011;18508;49.386;8.370;2024-02-14T03:50:19;13.90;;;6.97;;
31990;SDS011;18508;49.386;8.370;2024-02-14T03:52:48;12.98;;;6.68;;
31990;SDS011;18508;49.386;8.370;2024-02-14T03:55:17;10.38;;;5.75;;
31990;SDS011;18508;49.386;8.370;2024-02-14T03:57:49;10.13;;;6.20;;
31990;SDS011;18508;49.386;8.370;2024-02-14T04:00:35;11.52;;;5.75;;
31990;SDS011;18508;49.386;8.370;2024-02-14T04:03:05;11.27;;;6.18;;
31990;SDS011;18508;49.386;8.370;2024-02-14T04:05:35;11.48;;;6.68;;
31990;SDS011;18508;49.386;8.370;2024-02-14T04:08:04;11.18;;;5.82;;
31990;SDS011;18508;49.386;8.370;2024-02-14T04:10:35;11.73;;;5.47;;
31990;SDS011;18508;49.386;8.370;2024-02-14T04:13:04;10.45;;;5.60;;
31990;SDS011;18508;49.386;8.370;2024-02-14T04:15:33;10.38;;;5.53;;
31990;SDS011;18508;49.386;8.370;2024-02-14T04:18:02;13.60;;;5.78;;
31990;SDS011;18508;49.386;8.370;2024-02-14T04:20:34;10.80;;;5.55;;
31990;SDS011;18508;49.386;8.370;2024-02-14T04:23:03;11.52;;;5.75;;
31990;SDS011;18508;49.386;8.370;2024-02-14T04:25:33;13.50;;;5.25;;
31990;SDS011;18508;49.386;8.370;2024-02-14T04:28:02;13.30;;;5.47;;
31990;SDS011;18508;49.386;8.370;2024-02-14T04:30:34;9.82;;;5.88;;
31990;SDS011;18508;49.386;8.370;2024-02-14T04:33:04;14.63;;;5.85;;
31990;SDS011;18508;49.386;8.370;2024-02-14T04:35:41;10.63;;;5.85;;
31990;SDS011;18508;49.386;8.370;2024-02-14T04:38:09;11.68;;;5.70;;
31990;SDS011;18508;49.386;8.370;2024-02-14T04:40:38;9.57;;;5.25;;
31990;SDS011;18508;49.386;8.370;2024-02-14T04:43:06;9.05;;;5.72;;
31990;SDS011;18508;49.386;8.370;2024-02-14T04:45:35;10.52;;;6.03;;
31990;SDS011;18508;49.386;8.370;2024-02-14T04:48:04;9.60;;;6.28;;
31990;SDS011;18508;49.386;8.370;2024-02-14T04:50:34;11.73;;;5.97;;
31990;SDS011;18508;49.386;8.370;2024-02-14T04:53:05;13.65;;;6.40;;
31990;SDS011;18508;49.386;8.370;2024-02-14T04:55:34;9.55;;;5.53;;
31990;SDS011;18508;49.386;8.370;2024-02-14T04:58:03;12.52;;;5.80;;
31990;SDS011;18508;49.386;8.370;2024-02-14T05:00:32;10.35;;;5.80;;
31990;SDS011;18508;49.386;8.370;2024-02-14T05:03:01;12.45;;;5.95;;
31990;SDS011;18508;49.386;8.370;2024-02-14T05:05:31;14.95;;;6.35;;
31990;SDS011;18508;49.386;8.370;2024-02-14T05:08:01;9.02;;;5.30;;
31990;SDS011;18508;49.386;8.370;2024-02-14T05:10:31;10.75;;;5.32;;
31990;SDS011;18508;49.386;8.370;2024-02-14T05:13:00;9.77;;;5.50;;
31990;SDS011;18508;49.386;8.370;2024-02-14T05:15:29;9.73;;;6.03;;
31990;SDS011;18508;49.386;8.370;2024-02-14T05:17:58;9.23;;;4.75;;
31990;SDS011;18508;49.386;8.370;2024-02-14T05:20:27;11.70;;;5.40;;
31990;SDS011;18508;49.386;8.370;2024-02-14T05:22:56;11.57;;;5.43;;
31990;SDS011;18508;49.386;8.370;2024-02-14T05:25:25;9.95;;;5.32;;
31990;SDS011;18508;49.386;8.370;2024-02-14T05:27:57;9.80;;;5.03;;
31990;SDS011;18508;49.386;8.370;2024-02-14T05:30:26;13.60;;;5.38;;
31990;SDS011;18508;49.386;8.370;2024-02-14T05:32:55;10.98;;;5.00;;
31990;SDS011;18508;49.386;8.370;2024-02-14T05:35:25;8.98;;;4.95;;
31990;SDS011;18508;49.386;8.370;2024-02-14T05:37:54;12.20;;;4.95;;
31990;SDS011;18508;49.386;8.370;2024-02-14T05:40:22;9.82;;;4.97;;
31990;SDS011;18508;49.386;8.370;2024-02-14T05:42:52;9.85;;;4.60;;
31990;SDS011;18508;49.386;8.370;2024-02-14T05:45:24;8.55;;;4.30;;
31990;SDS011;18508;49.386;8.370;2024-02-14T05:47:53;11.27;;;4.50;;
31990;SDS011;18508;49.386;8.370;2024-02-14T05:50:21;8.40;;;4.70;;
31990;SDS011;18508;49.386;8.370;2024-02-14T05:52:53;7.78;;;4.05;;
31990;SDS011;18508;49.386;8.370;2024-02-14T05:55:24;11.30;;;4.32;;
31990;SDS011;18508;49.386;8.370;2024-02-14T05:57:52;7.40;;;3.97;;
31990;SDS011;18508;49.386;8.370;2024-02-14T06:02:55;17.23;;;6.20;;
31990;SDS011;18508;49.386;8.370;2024-02-14T06:05:25;7.40;;;3.88;;
31990;SDS011;18508;49.386;8.370;2024-02-14T06:07:54;6.28;;;3.70;;
31990;SDS011;18508;49.386;8.370;2024-02-14T06:10:22;8.77;;;4.60;;
31990;SDS011;18508;49.386;8.370;2024-02-14T06:12:52;8.10;;;3.85;;
31990;SDS011;18508;49.386;8.370;2024-02-14T06:15:20;8.10;;;3.80;;
31990;SDS011;18508;49.386;8.370;2024-02-14T06:17:50;12.10;;;4.07;;
31990;SDS011;18508;49.386;8.370;2024-02-14T06:20:19;8.40;;;4.07;;
31990;SDS011;18508;49.386;8.370;2024-02-14T06:22:49;6.18;;;3.85;;
31990;SDS011;18508;49.386;8.370;2024-02-14T06:25:29;11.63;;;3.95;;
31990;SDS011;18508;49.386;8.370;2024-02-14T06:28:01;8.82;;;3.92;;
31990;SDS011;18508;49.386;8.370;2024-02-14T06:30:30;10.93;;;4.07;;
31990;SDS011;18508;49.386;8.370;2024-02-14T06:33:01;5.72;;;3.47;;
31990;SDS011;18508;49.386;8.370;2024-02-14T06:35:30;7.03;;;3.30;;
31990;SDS011;18508;49.386;8.370;2024-02-14T06:37:59;6.43;;;3.20;;
31990;SDS011;18508;49.386;8.370;2024-02-14T06:40:33;8.85;;;4.00;;
31990;SDS011;18508;49.386;8.370;2024-02-14T06:43:03;8.77;;;4.32;;
31990;SDS011;18508;49.386;8.370;2024-02-14T06:45:33;7.68;;;3.47;;
31990;SDS011;18508;49.386;8.370;2024-02-14T06:48:03;11.35;;;4.00;;
31990;SDS011;18508;49.386;8.370;2024-02-14T06:50:36;9.10;;;3.78;;
31990;SDS011;18508;49.386;8.370;2024-02-14T06:53:05;7.80;;;3.63;;
31990;SDS011;18508;49.386;8.370;2024-02-14T06:58:07;8.48;;;3.60;;
31990;SDS011;18508;49.386;8.370;2024-02-14T07:00:40;9.00;;;3.50;;
31990;SDS011;18508;49.386;8.370;2024-02-14T07:03:11;7.97;;;3.80;;
31990;SDS011;18508;49.386;8.370;2024-02-14T07:05:40;6.13;;;3.42;;
31990;SDS011;18508;49.386;8.370;2024-02-14T07:08:11;8.70;;;3.38;;
31990;SDS011;18508;49.386;8.370;2024-02-14T07:10:41;6.70;;;2.60;;
31990;SDS011;18508;49.386;8.370;2024-02-14T07:13:10;6.60;;;3.03;;
31990;SDS011;18508;49.386;8.370;2024-02-14T07:15:40;9.80;;;4.00;;
31990;SDS011;18508;49.386;8.370;2024-02-14T07:18:11;15.70;;;2.90;;
31990;SDS011;18508;49.386;8.370;2024-02-14T07:20:39;5.38;;;2.65;;
31990;SDS011;18508;49.386;8.370;2024-02-14T07:23:08;7.32;;;4.15;;
31990;SDS011;18508;49.386;8.370;2024-02-14T07:25:36;7.40;;;3.10;;
31990;SDS011;18508;49.386;8.370;2024-02-14T07:28:11;6.22;;;3.13;;
31990;SDS011;18508;49.386;8.370;2024-02-14T07:30:40;5.78;;;2.90;;
31990;SDS011;18508;49.386;8.370;2024-02-14T07:33:09;6.50;;;3.58;;
31990;SDS011;18508;49.386;8.370;2024-02-14T07:35:40;9.15;;;3.50;;
31990;SDS011;18508;49.386;8.370;2024-02-14T07:38:17;10.82;;;3.67;;
31990;SDS011;18508;49.386;8.370;2024-02-14T07:40:52;10.90;;;3.20;;
31990;SDS011;18508;49.386;8.370;2024-02-14T07:43:27;5.40;;;3.08;;
31990;SDS011;18508;49.386;8.370;2024-02-14T07:46:01;7.32;;;3.40;;
31990;SDS011;18508;49.386;8.370;2024-02-14T07:48:37;8.48;;;4.07;;
31990;SDS011;18508;49.386;8.370;2024-02-14T07:51:10;5.53;;;2.83;;
31990;SDS011;18508;49.386;8.370;2024-02-14T07:53:43;7.82;;;3.47;;
31990;SDS011;18508;49.386;8.370;2024-02-14T07:56:13;7.68;;;3.00;;
31990;SDS011;18508;49.386;8.370;2024-02-14T08:01:17;8.90;;;3.40;;
31990;SDS011;18508;49.386;8.370;2024-02-14T08:03:47;5.93;;;3.33;;
31990;SDS011;18508;49.386;8.370;2024-02-14T08:06:23;7.30;;;3.50;;
31990;SDS011;18508;49.386;8.370;2024-02-14T08:08:52;6.72;;;3.30;;
31990;SDS011;18508;49.386;8.370;2024-02-14T08:11:25;7.13;;;3.17;;
31990;SDS011;18508;49.386;8.370;2024-02-14T08:14:01;10.80;;;3.83;;
31990;SDS011;18508;49.386;8.370;2024-02-14T08:16:32;8.38;;;3.40;;
31990;SDS011;18508;49.386;8.370;2024-02-14T08:19:03;7.70;;;3.30;;
31990;SDS011;18508;49.386;8.370;2024-02-14T08:21:34;7.65;;;3.25;;
31990;SDS011;18508;49.386;8.370;2024-02-14T08:24:04;6.78;;;3.10;;
31990;SDS011;18508;49.386;8.370;2024-02-14T08:26:34;11.35;;;3.67;;
31990;SDS011;18508;49.386;8.370;2024-02-14T08:29:08;9.27;;;2.78;;
31990;SDS011;18508;49.386;8.370;2024-02-14T08:31:41;6.18;;;2.88;;
31990;SDS011;18508;49.386;8.370;2024-02-14T08:34:11;8.32;;;2.97;;
31990;SDS011;18508;49.386;8.370;2024-02-14T08:36:44;5.18;;;3.03;;
31990;SDS011;18508;49.386;8.370;2024-02-14T08:39:13;9.00;;;3.05;;
31990;SDS011;18508;49.386;8.370;2024-02-14T08:41:46;4.40;;;2.78;;
31990;SDS011;18508;49.386;8.370;2024-02-14T08:44:16;4.55;;;2.60;;
31990;SDS011;18508;49.386;8.370;2024-02-14T08:46:47;4.72;;;2.65;;
31990;SDS011;18508;49.386;8.370;2024-02-14T08:49:17;6.68;;;2.35;;
31990;SDS011;18508;49.386;8.370;2024-02-14T08:51:47;6.55;;;2.95;;
31990;SDS011;18508;49.386;8.370;2024-02-14T08:54:17;4.90;;;2.72;;
31990;SDS011;18508;49.386;8.370;2024-02-14T08:56:48;6.10;;;2.90;;
31990;SDS011;18508;49.386;8.370;2024-02-14T08:59:20;5.93;;;2.70;;
31990;SDS011;18508;49.386;8.370;2024-02-14T09:01:49;6.13;;;2.70;;
31990;SDS011;18508;49.386;8.370;2024-02-14T09:04:18;6.65;;;3.33;;
31990;SDS011;18508;49.386;8.370;2024-02-14T09:06:49;6.75;;;3.00;;
31990;SDS011;18508;49.386;8.370;2024-02-14T09:09:19;7.38;;;3.17;;
31990;SDS011;18508;49.386;8.370;2024-02-14T09:11:49;5.35;;;3.13;;
31990;SDS011;18508;49.386;8.370;2024-02-14T09:14:18;5.38;;;2.50;;
31990;SDS011;18508;49.386;8.370;2024-02-14T09:16:47;6.43;;;2.85;;
31990;SDS011;18508;49.386;8.370;2024-02-14T09:19:16;7.38;;;3.50;;
31990;SDS011;18508;49.386;8.370;2024-02-14T09:21:45;6.25;;;3.50;;
31990;SDS011;18508;49.386;8.370;2024-02-14T09:24:15;6.20;;;3.67;;
31990;SDS011;18508;49.386;8.370;2024-02-14T09:26:45;6.95;;;3.17;;
31990;SDS011;18508;49.386;8.370;2024-02-14T09:29:15;8.75;;;3.85;;
31990;SDS011;18508;49.386;8.370;2024-02-14T09:31:44;6.63;;;3.30;;
31990;SDS011;18508;49.386;8.370;2024-02-14T09:34:14;8.60;;;3.42;;
31990;SDS011;18508;49.386;8.370;2024-02-14T09:36:45;5.10;;;3.42;;
31990;SDS011;18508;49.386;8.370;2024-02-14T09:39:18;5.50;;;2.95;;
31990;SDS011;18508;49.386;8.370;2024-02-14T09:41:48;5.88;;;2.72;;
31990;SDS011;18508;49.386;8.370;2024-02-14T09:44:21;9.27;;;2.70;;
31990;SDS011;18508;49.386;8.370;2024-02-14T09:46:50;6.65;;;3.17;;
31990;SDS011;18508;49.386;8.370;2024-02-14T09:49:21;7.57;;;2.85;;
31990;SDS011;18508;49.386;8.370;2024-02-14T09:51:51;4.93;;;2.78;;
31990;SDS011;18508;49.386;8.370;2024-02-14T09:54:22;9.10;;;3.08;;
31990;SDS011;18508;49.386;8.370;2024-02-14T09:56:51;5.45;;;3.10;;
31990;SDS011;18508;49.386;8.370;2024-02-14T09:59:22;8.90;;;3.35;;
31990;SDS011;18508;49.386;8.370;2024-02-14T10:01:51;6.25;;;2.72;;
31990;SDS011;18508;49.386;8.370;2024-02-14T10:04:20;4.80;;;2.72;;
31990;SDS011;18508;49.386;8.370;2024-02-14T10:06:52;5.20;;;2.85;;
31990;SDS011;18508;49.386;8.370;2024-02-14T10:09:26;4.28;;;2.55;;
31990;SDS011;18508;49.386;8.370;2024-02-14T10:11:57;4.13;;;2.35;;
31990;SDS011;18508;49.386;8.370;2024-02-14T10:14:27;4.88;;;2.58;;
31990;SDS011;18508;49.386;8.370;2024-02-14T10:16:57;5.80;;;2.40;;
31990;SDS011;18508;49.386;8.370;2024-02-14T10:19:29;5.43;;;2.17;;
31990;SDS011;18508;49.386;8.370;2024-02-14T10:22:02;6.55;;;2.58;;
31990;SDS011;18508;49.386;8.370;2024-02-14T10:24:38;5.25;;;3.15;;
31990;SDS011;18508;49.386;8.370;2024-02-14T10:27:11;6.43;;;2.17;;
31990;SDS011;18508;49.386;8.370;2024-02-14T10:29:47;5.82;;;2.47;;
31990;SDS011;18508;49.386;8.370;2024-02-14T10:32:19;8.95;;;3.30;;
31990;SDS011;18508;49.386;8.370;2024-02-14T10:34:53;6.50;;;2.40;;
31990;SDS011;18508;49.386;8.370;2024-02-14T10:37:22;4.78;;;3.10;;
31990;SDS011;18508;49.386;8.370;2024-02-14T10:39:56;5.18;;;2.20;;
31990;SDS011;18508;49.386;8.370;2024-02-14T10:42:28;5.00;;;3.08;;
31990;SDS011;18508;49.386;8.370;2024-02-14T10:45:14;5.45;;;2.30;;
31990;SDS011;18508;49.386;8.370;2024-02-14T10:47:52;4.90;;;2.47;;
31990;SDS011;18508;49.386;8.370;2024-02-14T10:50:22;6.00;;;2.30;;
31990;SDS011;18508;49.386;8.370;2024-02-14T10:52:53;4.03;;;1.95;;
31990;SDS011;18508;49.386;8.370;2024-02-14T10:55:30;4.43;;;2.00;;
31990;SDS011;18508;49.386;8.370;2024-02-14T10:58:07;3.45;;;1.65;;
31990;SDS011;18508;49.386;8.370;2024-02-14T11:00:40;3.30;;;1.63;;
31990;SDS011;18508;49.386;8.370;2024-02-14T11:03:22;5.57;;;2.05;;
31990;SDS011;18508;49.386;8.370;2024-02-14T11:05:56;5.40;;;2.00;;
31990;SDS011;18508;49.386;8.370;2024-02-14T11:08:36;5.97;;;2.30;;
31990;SDS011;18508;49.386;8.370;2024-02-14T11:11:09;3.10;;;1.48;;
31990;SDS011;18508;49.386;8.370;2024-02-14T11:13:51;6.88;;;3.03;;
31990;SDS011;18508;49.386;8.370;2024-02-14T11:16:23;4.53;;;1.85;;
31990;SDS011;18508;49.386;8.370;2024-02-14T11:19:05;3.70;;;1.70;;
31990;SDS011;18508;49.386;8.370;2024-02-14T11:21:39;2.92;;;1.38;;
31990;SDS011;18508;49.386;8.370;2024-02-14T11:24:12;4.65;;;1.85;;
31990;SDS011;18508;49.386;8.370;2024-02-14T11:26:48;4.85;;;1.58;;
31990;SDS011;18508;49.386;8.370;2024-02-14T11:29:28;8.38;;;2.20;;
31990;SDS011;18508;49.386;8.370;2024-02-14T11:32:01;3.72;;;1.27;;
31990;SDS011;18508;49.386;8.370;2024-02-14T11:34:37;3.28;;;1.50;;
31990;SDS011;18508;49.386;8.370;2024-02-14T11:37:09;3.07;;;1.70;;
31990;SDS011;18508;49.386;8.370;2024-02-14T11:39:40;2.08;;;1.13;;
31990;SDS011;18508;49.386;8.370;2024-02-14T11:42:12;2.30;;;1.10;;
31990;SDS011;18508;49.386;8.370;2024-02-14T11:44:46;3.85;;;1.38;;
31990;SDS011;18508;49.386;8.370;2024-02-14T11:47:23;3.95;;;1.58;;
31990;SDS011;18508;49.386;8.370;2024-02-14T11:49:57;5.45;;;1.45;;
31990;SDS011;18508;49.386;8.370;2024-02-14T11:52:32;1.63;;;0.80;;
31990;SDS011;18508;49.386;8.370;2024-02-14T11:55:04;2.20;;;1.27;;
31990;SDS011;18508;49.386;8.370;2024-02-14T11:57:44;2.33;;;1.10;;
31990;SDS011;18508;49.386;8.370;2024-02-14T12:00:19;3.70;;;1.33;;
31990;SDS011;18508;49.386;8.370;2024-02-14T12:02:51;2.70;;;1.13;;
31990;SDS011;18508;49.386;8.370;2024-02-14T12:05:21;2.47;;;1.45;;
31990;SDS011;18508;49.386;8.370;2024-02-14T12:07:51;2.88;;;1.10;;
31990;SDS011;18508;49.386;8.370;2024-02-14T12:10:22;2.88;;;1.45;;
31990;SDS011;18508;49.386;8.370;2024-02-14T12:12:55;2.72;;;1.13;;
31990;SDS011;18508;49.386;8.370;2024-02-14T12:15:25;4.90;;;1.52;;
31990;SDS011;18508;49.386;8.370;2024-02-14T12:18:01;4.85;;;1.13;;
31990;SDS011;18508;49.386;8.370;2024-02-14T12:20:38;3.42;;;1.40;;
31990;SDS011;18508;49.386;8.370;2024-02-14T12:23:13;2.67;;;1.13;;
31990;SDS011;18508;49.386;8.370;2024-02-14T12:25:45;1.98;;;0.90;;
31990;SDS011;18508;49.386;8.370;2024-02-14T12:28:17;2.88;;;1.13;;
31990;SDS011;18508;49.386;8.370;2024-02-14T12:30:49;3.00;;;1.00;;
31990;SDS011;18508;49.386;8.370;2024-02-14T12:33:24;3.03;;;1.02;;
31990;SDS011;18508;49.386;8.370;2024-02-14T12:35:55;2.05;;;0.95;;
31990;SDS011;18508;49.386;8.370;2024-02-14T12:38:28;5.40;;;2.78;;
31990;SDS011;18508;49.386;8.370;2024-02-14T12:41:01;4.38;;;2.08;;
31990;SDS011;18508;49.386;8.370;2024-02-14T12:43:32;2.85;;;1.30;;
31990;SDS011;18508;49.386;8.370;2024-02-14T12:46:05;3.38;;;1.40;;
31990;SDS011;18508;49.386;8.370;2024-02-14T12:48:38;3.90;;;1.80;;
31990;SDS011;18508;49.386;8.370;2024-02-14T12:51:11;3.78;;;1.73;;
31990;SDS011;18508;49.386;8.370;2024-02-14T12:53:43;4.10;;;2.10;;
31990;SDS011;18508;49.386;8.370;2024-02-14T12:56:14;4.10;;;1.40;;
31990;SDS011;18508;49.386;8.370;2024-02-14T12:58:47;3.85;;;1.67;;
31990;SDS011;18508;49.386;8.370;2024-02-14T13:01:21;3.03;;;1.48;;
31990;SDS011;18508;49.386;8.370;2024-02-14T13:03:52;3.15;;;1.33;;
31990;SDS011;18508;49.386;8.370;2024-02-14T13:06:23;3.13;;;1.45;;
31990;SDS011;18508;49.386;8.370;2024-02-14T13:08:55;2.55;;;1.13;;
31990;SDS011;18508;49.386;8.370;2024-02-14T13:11:30;2.42;;;1.10;;
31990;SDS011;18508;49.386;8.370;2024-02-14T13:14:02;2.78;;;1.10;;
31990;SDS011;18508;49.386;8.370;2024-02-14T13:16:33;2.25;;;1.00;;
31990;SDS011;18508;49.386;8.370;2024-02-14T13:19:03;1.85;;;1.00;;
31990;SDS011;18508;49.386;8.370;2024-02-14T13:21:33;4.38;;;1.10;;
31990;SDS011;18508;49.386;8.370;2024-02-14T13:24:04;1.65;;;0.85;;
31990;SDS011;18508;49.386;8.370;2024-02-14T13:26:38;4.28;;;1.20;;
31990;SDS011;18508;49.386;8.370;2024-02-14T13:29:09;2.45;;;1.20;;
31990;SDS011;18508;49.386;8.370;2024-02-14T13:31:39;4.03;;;1.40;;
31990;SDS011;18508;49.386;8.370;2024-02-14T13:34:09;4.10;;;1.50;;
31990;SDS011;18508;49.386;8.370;2024-02-14T13:36:39;2.65;;;1.63;;
31990;SDS011;18508;49.386;8.370;2024-02-14T13:39:09;2.85;;;1.10;;
31990;SDS011;18508;49.386;8.370;2024-02-14T13:41:39;3.17;;;1.52;;
31990;SDS011;18508;49.386;8.370;2024-02-14T13:44:14;2.25;;;1.20;;
31990;SDS011;18508;49.386;8.370;2024-02-14T13:46:44;2.65;;;1.30;;
31990;SDS011;18508;49.386;8.370;2024-02-14T13:49:20;3.28;;;1.13;;
31990;SDS011;18508;49.386;8.370;2024-02-14T13:51:51;2.42;;;1.20;;
31990;SDS011;18508;49.386;8.370;2024-02-14T13:54:25;4.68;;;1.10;;
31990;SDS011;18508;49.386;8.370;2024-02-14T13:56:59;2.80;;;1.08;;
31990;SDS011;18508;49.386;8.370;2024-02-14T13:59:41;4.18;;;1.15;;
31990;SDS011;18508;49.386;8.370;2024-02-14T14:02:19;4.50;;;1.10;;
31990;SDS011;18508;49.386;8.370;2024-02-14T14:04:49;1.98;;;1.00;;
31990;SDS011;18508;49.386;8.370;2024-02-14T14:07:25;1.50;;;0.90;;
31990;SDS011;18508;49.386;8.370;2024-02-14T14:10:23;2.05;;;0.73;;
31990;SDS011;18508;49.386;8.370;2024-02-14T14:12:55;3.80;;;0.90;;
31990;SDS011;18508;49.386;8.370;2024-02-14T14:15:28;1.63;;;0.70;;
31990;SDS011;18508;49.386;8.370;2024-02-14T14:18:10;1.33;;;0.68;;
31990;SDS011;18508;49.386;8.370;2024-02-14T14:20:44;1.48;;;0.70;;
31990;SDS011;18508;49.386;8.370;2024-02-14T14:23:17;1.25;;;0.70;;
31990;SDS011;18508;49.386;8.370;2024-02-14T14:25:52;1.75;;;0.68;;
31990;SDS011;18508;49.386;8.370;2024-02-14T14:28:30;1.42;;;0.70;;
31990;SDS011;18508;49.386;8.370;2024-02-14T14:31:01;2.38;;;0.75;;
31990;SDS011;18508;49.386;8.370;2024-02-14T14:33:32;2.58;;;0.70;;
31990;SDS011;18508;49.386;8.370;2024-02-14T14:36:07;2.28;;;0.60;;
31990;SDS011;18508;49.386;8.370;2024-02-14T14:38:40;2.65;;;0.77;;
31990;SDS011;18508;49.386;8.370;2024-02-14T14:41:19;2.50;;;0.70;;
31990;SDS011;18508;49.386;8.370;2024-02-14T14:43:55;3.33;;;0.70;;
31990;SDS011;18508;49.386;8.370;2024-02-14T14:46:28;3.15;;;1.00;;
31990;SDS011;18508;49.386;8.370;2024-02-14T14:49:03;2.13;;;0.70;;
31990;SDS011;18508;49.386;8.370;2024-02-14T14:51:42;1.75;;;0.60;;
31990;SDS011;18508;49.386;8.370;2024-02-14T14:54:12;4.50;;;0.77;;
31990;SDS011;18508;49.386;8.370;2024-02-14T14:56:52;1.48;;;0.80;;
31990;SDS011;18508;49.386;8.370;2024-02-14T14:59:22;1.98;;;1.08;;
31990;SDS011;18508;49.386;8.370;2024-02-14T15:01:53;2.45;;;0.88;;
31990;SDS011;18508;49.386;8.370;2024-02-14T15:04:29;2.90;;;1.50;;
31990;SDS011;18508;49.386;8.370;2024-02-14T15:07:04;1.70;;;0.80;;
31990;SDS011;18508;49.386;8.370;2024-02-14T15:09:35;2.70;;;0.90;;
31990;SDS011;18508;49.386;8.370;2024-02-14T15:12:07;1.83;;;0.77;;
31990;SDS011;18508;49.386;8.370;2024-02-14T15:14:38;1.60;;;0.70;;